Time;durP1;ratioP1;P1;durP2;ratioP2;P2;SDS_P1;SDS_P2;PMS_P1;PMS_P2;Temp;Humidity;BMP_temperature;BMP_pressure;BME280_temperature;BME280_humidity;BME280_pressure;Samples;Min_cycle;Max_cycle;Signal;HPM_P1;HPM_P2
2023/12/03 00:00:38;;;;;;;11.67;9.87;;;;;;;3.38;50.67;99219.16;8362243;23;20532;-75
2023/12/03 00:04:00;;;;;;;12.47;9.37;;;;;;;3.50;50.47;99215.31;8363880;23;20218;-76
2023/12/03 00:07:22;;;;;;;13.13;10.00;;;;;;;2.91;51.25;99221.13;8363398;23;20264;-77
2023/12/03 00:10:44;;;;;;;12.90;9.67;;;;;;;3.00;51.31;99211.38;8361251;23;20237;-76
2023/12/03 00:14:05;;;;;;;12.53;9.50;;;;;;;3.20;50.52;99221.78;8361965;23;20217;-76
2023/12/03 00:17:28;;;;;;;13.17;10.57;;;;;;;3.40;50.94;99212.69;8361386;23;20260;-76
2023/12/03 00:20:49;;;;;;;13.20;9.83;;;;;;;3.30;50.77;99205.78;8362132;23;20634;-76
2023/12/03 00:24:11;;;;;;;14.37;10.47;;;;;;;3.57;49.74;99211.88;8362533;23;20289;-76
2023/12/03 00:27:32;;;;;;;19.87;10.90;;;;;;;3.01;51.40;99192.59;8362578;23;20264;-76
2023/12/03 00:30:57;;;;;;;13.40;10.60;;;;;;;3.41;51.50;99214.38;8374858;23;20240;-77
2023/12/03 00:34:20;;;;;;;12.90;10.37;;;;;;;3.70;51.03;99222.16;8362597;23;20615;-76
2023/12/03 00:37:41;;;;;;;13.43;10.53;;;;;;;3.99;49.47;99202.28;8362057;23;20235;-76
2023/12/03 00:41:03;;;;;;;10.60;9.23;;;;;;;3.92;49.72;99219.91;8359494;23;20241;-77
2023/12/03 00:44:25;;;;;;;12.43;9.10;;;;;;;3.57;49.71;99222.56;8361416;23;20357;-77
2023/12/03 00:47:47;;;;;;;12.53;10.13;;;;;;;3.33;51.07;99224.97;8361657;23;20653;-77
2023/12/03 00:51:09;;;;;;;11.57;9.10;;;;;;;3.50;50.86;99240.16;8361248;23;20263;-76
2023/12/03 00:54:31;;;;;;;12.43;9.63;;;;;;;3.50;50.72;99242.81;8362226;23;20233;-76
2023/12/03 00:57:52;;;;;;;11.43;9.60;;;;;;;3.59;50.72;99239.22;8363131;23;20217;-76
2023/12/03 01:01:14;;;;;;;11.93;9.03;;;;;;;3.24;50.50;99243.66;8363411;23;20209;-76
2023/12/03 01:04:35;;;;;;;13.40;10.33;;;;;;;3.49;51.48;99251.75;8362912;23;20292;-76
2023/12/03 01:07:58;;;;;;;12.97;9.63;;;;;;;3.78;50.23;99241.75;8362989;23;20288;-77
2023/12/03 01:11:20;;;;;;;10.93;8.93;;;;;;;3.62;50.44;99246.94;8362007;23;20237;-76
2023/12/03 01:14:42;;;;;;;12.50;9.77;;;;;;;3.55;50.83;99264.50;8361918;23;20179;-76
2023/12/03 01:18:03;;;;;;;12.00;10.17;;;;;;;3.54;50.62;99267.34;8360571;23;20217;-76
2023/12/03 01:21:25;;;;;;;13.70;10.20;;;;;;;3.20;50.72;99243.09;8362479;23;20229;-76
2023/12/03 01:24:48;;;;;;;12.73;9.97;;;;;;;3.96;50.22;99266.59;8363336;23;20201;-76
2023/12/03 01:28:10;;;;;;;13.50;10.70;;;;;;;3.62;50.91;99259.41;8362742;23;20264;-77
2023/12/03 01:31:31;;;;;;;15.60;10.27;;;;;;;3.43;51.54;99286.19;8363343;23;20206;-76
2023/12/03 01:34:53;;;;;;;12.17;9.10;;;;;;;3.21;50.41;99273.25;8363412;23;20708;-76
2023/12/03 01:38:14;;;;;;;15.07;10.00;;;;;;;3.57;50.28;99286.53;8362486;23;20317;-76
2023/12/03 01:41:37;;;;;;;16.77;10.60;;;;;;;3.65;49.57;99296.44;8362913;23;20554;-76
2023/12/03 01:44:59;;;;;;;12.53;9.90;;;;;;;3.54;50.37;99299.31;8363350;23;20234;-76
2023/12/03 01:48:20;;;;;;;13.57;10.20;;;;;;;3.52;50.69;99311.94;8361200;23;20619;-76
2023/12/03 01:51:42;;;;;;;14.83;10.50;;;;;;;3.59;50.82;99313.03;8363231;23;20238;-76
2023/12/03 01:55:04;;;;;;;11.80;10.20;;;;;;;3.30;50.74;99277.72;8363212;23;20209;-76
2023/12/03 01:58:27;;;;;;;13.57;10.17;;;;;;;3.62;51.28;99305.59;8362546;23;20308;-77
2023/12/03 02:01:49;;;;;;;13.67;10.87;;;;;;;3.61;51.41;99311.88;8363183;23;20220;-76
2023/12/03 02:05:13;;;;;;;11.43;9.77;;;;;;;4.05;49.74;99305.69;8363096;23;20667;-76
2023/12/03 02:08:35;;;;;;;13.63;10.23;;;;;;;3.38;50.65;99268.00;8362327;23;20728;-76
2023/12/03 02:11:56;;;;;;;13.63;10.73;;;;;;;3.74;51.25;99311.53;8363075;23;20814;-77
2023/12/03 02:15:19;;;;;;;14.50;11.03;;;;;;;3.75;51.46;99313.22;8362621;23;20223;-76
2023/12/03 02:18:41;;;;;;;13.17;10.00;;;;;;;3.92;51.38;99312.41;8362189;23;20223;-76
2023/12/03 02:22:02;;;;;;;14.37;10.97;;;;;;;3.96;50.46;99306.59;8362730;23;20267;-76
2023/12/03 02:25:25;;;;;;;11.40;9.30;;;;;;;3.98;50.50;99309.97;8361607;23;20233;-76
2023/12/03 02:28:47;;;;;;;11.93;10.20;;;;;;;4.04;49.67;99303.19;8360871;23;20929;-77
2023/12/03 02:32:09;;;;;;;11.70;9.10;;;;;;;4.22;49.14;99307.53;8361890;23;20522;-77
2023/12/03 02:35:30;;;;;;;11.93;9.53;;;;;;;3.99;49.65;99298.31;8362560;23;20282;-76
2023/12/03 02:38:52;;;;;;;10.43;9.13;;;;;;;4.09;49.69;99300.91;8361164;23;20283;-76
2023/12/03 02:42:14;;;;;;;12.33;9.93;;;;;;;4.13;49.25;99311.09;8360729;23;20273;-77
2023/12/03 02:45:36;;;;;;;15.57;10.33;;;;;;;4.16;48.71;99316.16;8360966;23;20233;-76
2023/12/03 02:48:57;;;;;;;11.47;9.90;;;;;;;4.13;48.60;99305.75;8358859;23;20616;-76
2023/12/03 02:52:19;;;;;;;10.10;8.93;;;;;;;4.09;49.28;99309.75;8361774;23;20258;-76
2023/12/03 02:55:41;;;;;;;13.30;9.97;;;;;;;4.11;49.01;99328.25;8361798;23;20638;-76
2023/12/03 02:59:05;;;;;;;10.23;8.67;;;;;;;4.11;49.31;99325.59;8360735;23;20212;-76
2023/12/03 03:02:27;;;;;;;11.70;9.77;;;;;;;3.84;49.31;99323.00;8360478;23;20260;-76
2023/12/03 03:05:50;;;;;;;11.00;9.43;;;;;;;3.61;50.26;99322.53;8360619;23;20315;-76
2023/12/03 03:09:12;;;;;;;13.83;10.23;;;;;;;3.72;50.09;99317.00;8361103;23;20284;-76
2023/12/03 03:12:33;;;;;;;12.27;9.33;;;;;;;3.86;48.72;99315.66;8361724;23;20185;-76
2023/12/03 03:15:56;;;;;;;10.33;8.43;;;;;;;3.68;49.45;99313.00;8361655;23;20637;-76
2023/12/03 03:19:18;;;;;;;10.80;8.83;;;;;;;3.45;49.89;99325.03;8359973;23;20285;-78
2023/12/03 03:22:39;;;;;;;11.80;9.37;;;;;;;3.27;50.77;99324.16;8362575;23;20780;-76
2023/12/03 03:26:01;;;;;;;10.60;9.13;;;;;;;3.40;50.05;99329.97;8362522;23;20229;-76
2023/12/03 03:29:22;;;;;;;10.80;8.90;;;;;;;3.64;49.16;99318.75;8361035;23;20216;-76
2023/12/03 03:32:45;;;;;;;10.10;8.67;;;;;;;3.23;49.97;99324.56;8362455;23;20263;-76
2023/12/03 03:36:07;;;;;;;9.43;8.53;;;;;;;3.61;49.02;99335.06;8362234;23;20209;-76
2023/12/03 03:39:29;;;;;;;13.43;9.80;;;;;;;3.37;49.75;99342.75;8361363;23;20259;-76
2023/12/03 03:42:50;;;;;;;12.57;9.63;;;;;;;3.29;50.29;99355.94;8363325;23;20587;-76
2023/12/03 03:46:12;;;;;;;12.07;8.73;;;;;;;3.14;50.34;99349.44;8362844;23;20347;-76
2023/12/03 03:49:35;;;;;;;10.67;8.03;;;;;;;3.29;49.15;99346.13;8360600;23;20201;-76
2023/12/03 03:52:57;;;;;;;11.80;8.43;;;;;;;3.20;49.21;99352.34;8363044;23;20205;-76
2023/12/03 03:56:20;;;;;;;10.63;8.83;;;;;;;3.41;48.71;99349.44;8363062;23;20210;-76
2023/12/03 03:59:43;;;;;;;9.77;7.97;;;;;;;3.14;49.12;99354.75;8360579;23;20229;-76
2023/12/03 04:03:05;;;;;;;9.70;8.10;;;;;;;3.39;48.16;99351.44;8362461;23;20170;-77
2023/12/03 04:06:27;;;;;;;9.30;7.80;;;;;;;3.08;48.78;99310.88;8361903;23;20331;-76
2023/12/03 04:09:49;;;;;;;9.70;7.77;;;;;;;3.09;49.01;99347.22;8361201;23;20380;-76
2023/12/03 04:13:10;;;;;;;9.37;8.17;;;;;;;3.02;50.19;99355.91;8362772;23;20264;-76
2023/12/03 04:16:32;;;;;;;11.57;8.97;;;;;;;3.05;49.98;99352.94;8363623;23;20642;-76
2023/12/03 04:19:55;;;;;;;8.53;7.23;;;;;;;3.22;48.60;99342.38;8362285;23;20230;-76
2023/12/03 04:23:18;;;;;;;9.00;7.87;;;;;;;3.21;48.02;99340.72;8363293;23;20186;-76
2023/12/03 04:26:42;;;;;;;7.93;6.80;;;;;;;3.31;48.12;99320.19;8361815;23;20387;-76
2023/12/03 04:30:04;;;;;;;8.43;7.13;;;;;;;3.14;48.71;99344.09;8360839;23;20213;-76
2023/12/03 04:33:26;;;;;;;8.40;7.40;;;;;;;2.83;49.49;99330.16;8363155;23;20496;-76
2023/12/03 04:36:47;;;;;;;8.70;7.80;;;;;;;2.93;49.37;99341.63;8363020;23;20264;-77
2023/12/03 04:40:11;;;;;;;12.97;8.50;;;;;;;2.94;49.68;99345.97;8361480;23;20594;-77
2023/12/03 04:43:32;;;;;;;9.03;8.10;;;;;;;2.58;50.29;99356.53;8361887;23;20187;-76
2023/12/03 04:46:56;;;;;;;10.53;8.63;;;;;;;2.52;50.92;99362.44;8359837;23;20284;-76
2023/12/03 04:50:17;;;;;;;9.40;8.13;;;;;;;2.98;49.43;99349.19;8362497;23;20279;-77
2023/12/03 04:53:39;;;;;;;9.37;8.37;;;;;;;3.23;48.61;99354.72;8363438;23;20178;-76
2023/12/03 04:57:02;;;;;;;11.00;8.10;;;;;;;3.38;48.57;99363.94;8371868;23;20261;-76
2023/12/03 05:00:23;;;;;;;12.57;9.10;;;;;;;2.90;49.41;99365.88;8359939;23;20212;-76
2023/12/03 05:03:45;;;;;;;13.33;9.23;;;;;;;2.99;49.33;99373.03;8361157;23;20264;-77
2023/12/03 05:07:09;;;;;;;9.40;8.17;;;;;;;2.77;51.32;99391.97;8361087;23;20202;-76
2023/12/03 05:10:31;;;;;;;10.57;8.13;;;;;;;2.49;50.17;99376.84;8361423;23;20206;-77
2023/12/03 05:13:55;;;;;;;12.53;9.93;;;;;;;2.98;50.10;99373.16;8363133;23;20627;-75
2023/12/03 05:17:17;;;;;;;10.03;8.63;;;;;;;3.26;49.73;99385.56;8363296;23;20659;-77
2023/12/03 05:20:39;;;;;;;9.27;8.37;;;;;;;3.52;48.76;99387.44;8360602;23;20229;-76
2023/12/03 05:24:00;;;;;;;13.50;8.70;;;;;;;3.67;47.31;99388.59;8361613;23;20269;-76
2023/12/03 05:27:22;;;;;;;9.53;7.63;;;;;;;3.41;48.79;99392.94;8361887;23;20684;-76
2023/12/03 05:30:45;;;;;;;11.13;9.10;;;;;;;3.46;48.31;99390.69;8359900;23;20242;-77
2023/12/03 05:34:09;;;;;;;10.63;9.00;;;;;;;2.99;50.06;99382.81;8362264;23;20182;-76
2023/12/03 05:37:30;;;;;;;11.70;9.13;;;;;;;3.04;50.13;99400.06;8364830;23;20724;-77
2023/12/03 05:40:52;;;;;;;11.70;9.53;;;;;;;3.08;50.29;99395.28;8363427;23;20236;-77
2023/12/03 05:44:14;;;;;;;13.57;10.07;;;;;;;2.83;50.60;99386.06;8362208;23;20185;-76
2023/12/03 05:47:37;;;;;;;14.70;11.23;;;;;;;3.25;48.30;99394.53;8361039;23;20359;-76
2023/12/03 05:50:59;;;;;;;12.17;10.30;;;;;;;3.28;48.78;99416.41;8360454;23;20248;-76
2023/12/03 05:54:20;;;;;;;11.20;9.10;;;;;;;3.22;48.54;99414.31;8361757;23;20269;-76
2023/12/03 05:57:42;;;;;;;12.70;9.57;;;;;;;2.85;48.83;99420.56;8361304;23;20320;-76
2023/12/03 06:01:05;;;;;;;12.77;9.37;;;;;;;2.05;50.06;99408.47;8360780;23;20233;-76
2023/12/03 06:04:28;;;;;;;11.60;10.20;;;;;;;1.85;51.53;99420.03;8362055;23;20193;-76
2023/12/03 06:07:50;;;;;;;10.67;8.90;;;;;;;2.22;51.49;99421.09;8361154;23;20493;-76
2023/12/03 06:11:11;;;;;;;11.20;9.73;;;;;;;2.38;51.54;99416.09;8360746;23;20678;-76
2023/12/03 06:14:33;;;;;;;12.93;10.43;;;;;;;2.16;51.05;99411.00;8361934;23;20181;-79
2023/12/03 06:17:57;;;;;;;18.17;11.30;;;;;;;2.23;51.08;99428.94;8363859;23;20621;-75
2023/12/03 06:21:20;;;;;;;16.20;10.33;;;;;;;2.17;50.86;99429.50;8361393;23;20235;-75
2023/12/03 06:24:41;;;;;;;12.43;9.03;;;;;;;1.88;50.38;99409.97;8357407;23;20279;-76
2023/12/03 06:28:03;;;;;;;11.73;9.77;;;;;;;1.94;50.39;99413.91;8360725;23;20739;-75
2023/12/03 06:31:25;;;;;;;13.20;9.50;;;;;;;1.94;50.79;99436.03;8360131;23;20232;-75
2023/12/03 06:34:46;;;;;;;11.77;8.87;;;;;;;1.12;51.90;99435.41;8361821;23;20288;-75
2023/12/03 06:38:09;;;;;;;13.87;9.83;;;;;;;1.53;52.12;99436.16;8361331;23;20212;-76
2023/12/03 06:41:30;;;;;;;11.77;9.87;;;;;;;1.65;51.71;99442.25;8361935;23;20263;-75
2023/12/03 06:44:52;;;;;;;10.97;8.93;;;;;;;1.54;51.68;99434.34;8360811;23;20732;-75
2023/12/03 06:48:13;;;;;;;11.93;9.63;;;;;;;1.62;50.61;99451.31;8359645;23;20284;-76
2023/12/03 06:51:35;;;;;;;11.27;9.60;;;;;;;1.65;50.99;99444.91;8372606;23;20276;-75
2023/12/03 06:54:58;;;;;;;12.23;10.13;;;;;;;1.52;51.01;99455.72;8362775;23;20236;-76
2023/12/03 06:58:19;;;;;;;12.20;9.47;;;;;;;1.50;50.36;99440.91;8359561;23;20268;-76
2023/12/03 07:01:41;;;;;;;10.87;9.30;;;;;;;1.45;51.18;99435.13;8361522;23;20286;-76
2023/12/03 07:05:02;;;;;;;13.17;10.30;;;;;;;1.23;51.65;99462.69;8361025;23;20483;-76
2023/12/03 07:08:24;;;;;;;15.83;10.27;;;;;;;1.39;50.90;99454.25;8360951;23;20233;-75
2023/12/03 07:11:46;;;;;;;13.00;9.77;;;;;;;1.33;51.08;99471.59;8360855;23;20670;-77
2023/12/03 07:15:09;;;;;;;11.47;8.90;;;;;;;1.29;51.28;99456.00;8364662;23;20212;-76
2023/12/03 07:18:30;;;;;;;12.10;8.23;;;;;;;1.27;51.46;99480.06;8361784;23;20217;-76
2023/12/03 07:21:52;;;;;;;12.83;9.87;;;;;;;1.20;51.87;99483.38;8361615;23;20186;-76
2023/12/03 07:25:13;;;;;;;14.40;9.83;;;;;;;1.48;51.09;99480.88;8360647;23;20619;-77
2023/12/03 07:28:39;;;;;;;12.67;9.60;;;;;;;1.36;51.52;99487.25;8360042;23;20268;-78
2023/12/03 07:32:00;;;;;;;10.73;9.07;;;;;;;1.37;51.88;99496.06;8360596;23;20253;-78
2023/12/03 07:35:22;;;;;;;12.73;9.63;;;;;;;1.51;50.69;99485.09;8359396;23;20198;-76
2023/12/03 07:38:43;;;;;;;11.83;8.87;;;;;;;1.47;50.91;99492.47;8359603;23;20181;-77
2023/12/03 07:42:06;;;;;;;9.97;7.90;;;;;;;1.38;51.82;99489.78;8360452;23;20252;-76
2023/12/03 07:45:29;;;;;;;10.53;8.07;;;;;;;1.36;50.80;99492.56;8361146;23;20182;-78
2023/12/03 07:48:50;;;;;;;10.93;8.90;;;;;;;1.32;51.33;99495.59;8359820;23;20299;-76
2023/12/03 07:52:12;;;;;;;9.97;8.70;;;;;;;1.12;51.60;99499.94;8359977;23;20267;-79
2023/12/03 07:55:34;;;;;;;12.80;10.13;;;;;;;1.32;51.41;99493.81;8360716;23;20606;-78
2023/12/03 07:58:55;;;;;;;16.77;9.80;;;;;;;1.38;50.83;99495.09;8359831;23;20545;-77
2023/12/03 08:02:18;;;;;;;13.53;10.30;;;;;;;1.20;50.72;99516.06;8360712;23;20217;-77
2023/12/03 08:05:40;;;;;;;15.03;10.77;;;;;;;1.39;50.88;99504.75;8360070;23;20620;-76
2023/12/03 08:09:02;;;;;;;11.77;9.30;;;;;;;1.27;51.71;99508.44;8359040;23;20212;-77
2023/12/03 08:12:23;;;;;;;13.43;10.60;;;;;;;0.86;52.04;99466.78;8361968;23;20638;-76
2023/12/03 08:15:45;;;;;;;15.10;11.40;;;;;;;1.68;51.15;99509.25;8363683;23;20201;-77
2023/12/03 08:19:08;;;;;;;14.67;10.33;;;;;;;1.61;51.66;99508.06;8362318;23;20645;-77
2023/12/03 08:22:29;;;;;;;17.27;11.10;;;;;;;2.06;51.14;99512.06;8363541;23;20642;-77
2023/12/03 08:25:51;;;;;;;13.47;10.97;;;;;;;1.98;50.59;99505.72;8361665;23;20288;-78
2023/12/03 08:29:13;;;;;;;14.07;11.30;;;;;;;4.16;47.91;99500.28;8362190;23;20773;-76
2023/12/03 08:32:34;;;;;;;14.33;10.70;;;;;;;6.13;42.76;99482.78;8361750;23;20182;-77
2023/12/03 08:35:58;;;;;;;13.60;10.17;;;;;;;7.37;39.02;99495.09;8361947;23;20264;-77
2023/12/03 08:39:19;;;;;;;12.00;9.87;;;;;;;7.45;38.96;99489.72;8362429;23;20687;-77
2023/12/03 08:42:44;;;;;;;12.40;9.57;;;;;;;6.16;40.76;99493.16;8362911;23;20516;-78
2023/12/03 08:46:06;;;;;;;14.50;10.17;;;;;;;5.48;42.35;99496.75;8361321;23;20202;-77
2023/12/03 08:49:27;;;;;;;14.33;10.23;;;;;;;5.01;43.70;99498.84;8361147;23;20291;-77
2023/12/03 08:52:50;;;;;;;17.53;11.57;;;;;;;4.55;45.14;99519.59;8363112;23;20193;-76
2023/12/03 08:56:12;;;;;;;14.63;10.83;;;;;;;4.39;46.08;99514.06;8363213;23;20643;-77
2023/12/03 08:59:34;;;;;;;16.20;10.97;;;;;;;4.46;45.52;99510.66;8361913;23;20671;-77
2023/12/03 09:02:56;;;;;;;14.87;11.00;;;;;;;4.42;47.15;99521.78;8361691;23;20494;-77
2023/12/03 09:06:18;;;;;;;15.93;12.23;;;;;;;4.48;46.32;99521.19;8361479;23;20691;-76
2023/12/03 09:09:42;;;;;;;13.63;10.73;;;;;;;4.69;45.53;99517.25;8361218;23;20256;-77
2023/12/03 09:13:03;;;;;;;15.20;10.23;;;;;;;4.62;46.06;99515.31;8361934;23;20232;-77
2023/12/03 09:16:25;;;;;;;11.50;10.00;;;;;;;4.98;45.67;99519.69;8362737;23;20265;-76
2023/12/03 09:19:46;;;;;;;11.43;8.93;;;;;;;4.90;45.15;99512.44;8361259;23;21047;-77
2023/12/03 09:23:08;;;;;;;13.70;10.57;;;;;;;4.97;45.10;99520.69;8360318;23;20214;-77
2023/12/03 09:26:31;;;;;;;12.50;10.17;;;;;;;4.96;45.42;99511.00;8360954;23;20212;-76
2023/12/03 09:29:53;;;;;;;12.53;10.50;;;;;;;5.06;45.12;99509.94;8361255;23;20256;-77
2023/12/03 09:33:14;;;;;;;14.00;9.80;;;;;;;5.28;44.64;99511.28;8361444;23;20261;-77
2023/12/03 09:36:36;;;;;;;13.30;10.00;;;;;;;4.64;45.85;99498.16;8361168;23;20325;-76
2023/12/03 09:39:58;;;;;;;13.33;10.37;;;;;;;4.80;46.13;99500.16;8374442;23;20208;-77
2023/12/03 09:43:21;;;;;;;12.50;10.23;;;;;;;4.92;45.69;99506.94;8362007;23;20769;-76
2023/12/03 09:46:45;;;;;;;13.43;9.47;;;;;;;5.49;45.50;99490.41;8361765;23;20241;-77
2023/12/03 09:50:08;;;;;;;13.03;10.13;;;;;;;5.67;44.74;99483.16;8359696;23;20202;-77
2023/12/03 09:53:32;;;;;;;13.73;10.73;;;;;;;4.86;47.02;99480.84;8360768;23;20255;-76
2023/12/03 09:56:57;;;;;;;13.20;10.23;;;;;;;4.95;46.23;99498.63;8362201;23;20208;-76
2023/12/03 10:00:21;;;;;;;14.03;10.93;;;;;;;5.71;44.63;99485.34;8361121;23;20206;-77
2023/12/03 10:03:42;;;;;;;14.17;10.87;;;;;;;5.76;44.95;99496.44;8362462;23;20186;-75
2023/12/03 10:07:04;;;;;;;12.70;9.57;;;;;;;6.07;43.73;99486.91;8362452;23;20504;-77
2023/12/03 10:10:30;;;;;;;12.93;10.27;;;;;;;6.08;44.33;99485.09;8361626;23;20286;-76
2023/12/03 10:13:52;;;;;;;12.23;9.83;;;;;;;6.13;43.04;99480.91;8361063;23;20202;-78
2023/12/03 10:17:20;;;;;;;12.83;9.57;;;;;;;6.26;43.35;99457.22;8362639;23;20217;-78
2023/12/03 10:20:42;;;;;;;12.30;10.03;;;;;;;6.37;42.83;99472.16;8362323;23;20238;-76
2023/12/03 10:24:05;;;;;;;13.23;9.57;;;;;;;6.70;43.18;99477.44;8362275;23;20490;-76
2023/12/03 10:27:29;;;;;;;12.47;9.70;;;;;;;6.60;42.21;99481.28;8360106;23;20210;-77
2023/12/03 10:30:51;;;;;;;11.00;9.17;;;;;;;6.51;42.87;99479.56;8374149;23;20194;-77
2023/12/03 10:34:14;;;;;;;12.77;10.17;;;;;;;6.48;43.47;99477.22;8359291;23;20206;-76
2023/12/03 10:37:36;;;;;;;12.10;9.83;;;;;;;6.37;43.95;99475.66;8360873;23;20257;-77
2023/12/03 10:40:59;;;;;;;11.87;9.50;;;;;;;6.85;42.79;99466.91;8361449;23;20260;-76
2023/12/03 10:44:23;;;;;;;12.53;9.37;;;;;;;6.38;43.55;99479.19;8365000;23;20186;-80
2023/12/03 10:47:45;;;;;;;12.33;9.53;;;;;;;6.96;42.05;99466.59;8364168;23;20209;-80
2023/12/03 10:51:10;;;;;;;10.37;9.27;;;;;;;6.77;42.47;99467.72;8375687;23;20198;-81
2023/12/03 10:54:31;;;;;;;12.53;9.30;;;;;;;6.81;42.46;99471.75;8361875;23;20269;-78
2023/12/03 10:58:00;;;;;;;11.67;8.93;;;;;;;6.68;41.75;99457.16;8358402;23;20210;-79
2023/12/03 11:01:24;;;;;;;11.57;9.17;;;;;;;6.51;42.97;99458.97;8359614;23;20535;-77
2023/12/03 11:04:50;;;;;;;11.80;9.47;;;;;;;6.94;41.82;99456.03;8359383;23;20214;-76
2023/12/03 11:08:15;;;;;;;10.97;9.47;;;;;;;6.01;43.34;99449.28;8355095;23;20277;-76
2023/12/03 11:11:38;;;;;;;12.87;10.27;;;;;;;6.21;43.02;99453.34;8360314;23;20579;-76
2023/12/03 11:14:59;;;;;;;13.83;9.13;;;;;;;7.03;43.65;99451.50;8361500;23;20277;-75
2023/12/03 11:18:22;;;;;;;11.93;9.43;;;;;;;7.23;42.87;99440.28;8361034;23;20213;-76
2023/12/03 11:21:51;;;;;;;12.87;9.13;;;;;;;7.12;42.38;99447.81;8374988;23;20199;-76
2023/12/03 11:25:16;;;;;;;11.47;9.17;;;;;;;6.52;41.11;99449.94;8361477;23;20173;-76
2023/12/03 11:28:50;;;;;;;15.03;10.23;;;;;;;6.61;44.66;99445.44;8359761;23;20196;-77
2023/12/03 11:32:13;;;;;;;13.17;10.23;;;;;;;7.60;41.81;99437.88;8361274;23;20514;-77
2023/12/03 11:35:34;;;;;;;12.63;9.53;;;;;;;7.97;41.14;99439.97;8360995;23;20246;-78
2023/12/03 11:38:57;;;;;;;12.90;9.37;;;;;;;8.04;40.63;99419.44;8360673;23;20207;-75
2023/12/03 11:42:24;;;;;;;14.87;11.43;;;;;;;6.12;43.55;99444.44;8362578;23;20665;-75
2023/12/03 11:45:46;;;;;;;13.33;9.67;;;;;;;7.63;40.98;99425.97;8363380;23;20178;-75
2023/12/03 11:49:07;;;;;;;10.77;9.20;;;;;;;8.09;40.08;99427.84;8362223;23;20212;-76
2023/12/03 11:52:29;;;;;;;11.70;9.63;;;;;;;8.08;38.51;99389.38;8363518;23;20189;-75
2023/12/03 11:55:51;;;;;;;12.23;9.83;;;;;;;7.41;39.69;99411.44;8362008;23;20232;-75
2023/12/03 11:59:14;;;;;;;11.57;9.20;;;;;;;7.53;41.70;99420.78;8362453;23;20541;-75
2023/12/03 12:02:36;;;;;;;9.90;8.90;;;;;;;7.89;40.37;99415.84;8363804;23;20182;-75
2023/12/03 12:05:58;;;;;;;14.93;9.60;;;;;;;8.26;38.99;99408.78;8363437;23;20222;-75
2023/12/03 12:09:23;;;;;;;13.67;10.47;;;;;;;7.43;40.99;99403.22;8362053;23;20207;-75
2023/12/03 12:12:44;;;;;;;15.40;11.00;;;;;;;7.66;40.66;99406.84;8361910;23;20226;-75
2023/12/03 12:16:10;;;;;;;10.80;8.67;;;;;;;8.21;39.69;99410.34;8361697;23;20190;-79
2023/12/03 12:19:31;;;;;;;11.73;9.20;;;;;;;8.13;39.54;99396.94;8361061;23;20209;-76
2023/12/03 12:22:53;;;;;;;12.90;9.70;;;;;;;7.90;40.49;99394.16;8360207;23;20262;-77
2023/12/03 12:26:15;;;;;;;12.97;9.27;;;;;;;8.13;39.71;99402.31;8360542;23;20206;-76
2023/12/03 12:29:36;;;;;;;15.80;9.70;;;;;;;7.91;40.31;99400.38;8361721;23;20222;-77
2023/12/03 12:32:59;;;;;;;12.20;9.27;;;;;;;8.17;39.20;99404.47;8362120;23;20266;-76
2023/12/03 12:36:21;;;;;;;10.57;8.33;;;;;;;7.97;40.48;99397.00;8362754;23;20319;-78
2023/12/03 12:39:42;;;;;;;11.80;9.83;;;;;;;7.67;40.50;99384.38;8361121;23;20206;-75
2023/12/03 12:43:05;;;;;;;12.10;9.40;;;;;;;7.49;40.86;99367.66;8363107;23;20222;-75
2023/12/03 12:46:28;;;;;;;11.13;8.47;;;;;;;7.99;39.92;99384.22;8363696;23;20187;-75
2023/12/03 12:49:56;;;;;;;11.27;8.67;;;;;;;7.54;40.71;99349.19;8362258;23;20672;-75
2023/12/03 12:53:18;;;;;;;9.23;8.13;;;;;;;7.75;40.11;99360.16;8361728;23;20630;-75
2023/12/03 12:56:40;;;;;;;12.10;9.07;;;;;;;7.85;40.68;99383.09;8361903;23;20260;-75
2023/12/03 13:00:02;;;;;;;14.27;9.63;;;;;;;7.97;40.96;99381.75;8362503;23;20806;-78
2023/12/03 13:03:23;;;;;;;12.07;9.40;;;;;;;8.00;40.16;99376.00;8363080;23;20193;-76
2023/12/03 13:06:46;;;;;;;11.97;8.83;;;;;;;8.24;39.43;99375.09;8362725;23;20196;-76
2023/12/03 13:10:08;;;;;;;14.63;10.30;;;;;;;8.18;40.31;99379.28;8362593;23;20236;-75
2023/12/03 13:13:30;;;;;;;12.27;8.70;;;;;;;7.58;40.94;99377.34;8361650;23;20218;-75
2023/12/03 13:16:51;;;;;;;10.53;9.43;;;;;;;7.43;40.02;99382.56;8361904;23;20649;-75
2023/12/03 13:20:13;;;;;;;9.40;7.77;;;;;;;7.29;40.85;99369.88;8362145;23;20289;-74
2023/12/03 13:23:36;;;;;;;11.93;8.90;;;;;;;7.45;40.50;99377.91;8362771;23;20244;-75
2023/12/03 13:26:57;;;;;;;10.03;8.97;;;;;;;7.52;41.05;99360.09;8362107;23;20217;-75
2023/12/03 13:30:19;;;;;;;11.53;9.03;;;;;;;7.56;41.13;99337.28;8360194;23;20248;-75
2023/12/03 13:33:40;;;;;;;12.23;10.00;;;;;;;7.75;40.47;99352.97;8362359;23;20245;-75
2023/12/03 13:37:02;;;;;;;12.13;9.53;;;;;;;7.74;41.14;99366.56;8361894;23;20525;-75
2023/12/03 13:40:25;;;;;;;11.23;8.43;;;;;;;7.69;41.28;99361.72;8360173;23;20221;-75
2023/12/03 13:43:47;;;;;;;11.63;9.57;;;;;;;7.76;41.12;99361.84;8362343;23;20194;-75
2023/12/03 13:47:08;;;;;;;12.03;9.03;;;;;;;7.57;40.72;99347.00;8362546;23;20255;-75
2023/12/03 13:50:30;;;;;;;11.80;9.07;;;;;;;7.55;41.65;99359.72;8361393;23;20206;-75
2023/12/03 13:53:51;;;;;;;11.50;8.80;;;;;;;7.36;41.98;99356.63;8361841;23;20681;-75
2023/12/03 13:57:14;;;;;;;11.83;9.27;;;;;;;6.94;43.57;99364.88;8361420;23;20259;-75
2023/12/03 14:00:36;;;;;;;12.27;10.27;;;;;;;6.78;43.96;99366.75;8362051;23;20632;-75
2023/12/03 14:03:58;;;;;;;12.20;9.90;;;;;;;6.95;43.95;99355.84;8362635;23;20182;-75
2023/12/03 14:07:19;;;;;;;12.93;9.73;;;;;;;6.92;44.67;99358.88;8362301;23;20356;-75
2023/12/03 14:10:41;;;;;;;12.57;10.03;;;;;;;6.90;44.09;99376.94;8361759;23;20731;-75
2023/12/03 14:14:04;;;;;;;13.30;9.80;;;;;;;6.77;44.71;99368.56;8361574;23;20188;-75
2023/12/03 14:17:25;;;;;;;14.57;10.80;;;;;;;6.42;45.71;99360.84;8361272;23;20229;-75
2023/12/03 14:20:47;;;;;;;12.83;10.50;;;;;;;6.45;46.42;99357.00;8362148;23;20679;-75
2023/12/03 14:24:08;;;;;;;13.03;10.30;;;;;;;6.75;45.54;99356.34;8362924;23;20592;-75
2023/12/03 14:27:30;;;;;;;15.20;10.90;;;;;;;6.38;46.55;99346.09;8361507;23;20340;-75
2023/12/03 14:30:53;;;;;;;14.40;10.83;;;;;;;5.87;47.94;99354.38;8360304;23;20280;-74
2023/12/03 14:34:14;;;;;;;15.10;11.07;;;;;;;6.05;47.79;99344.38;8362171;23;20186;-74
2023/12/03 14:37:36;;;;;;;14.50;10.93;;;;;;;6.01;47.51;99343.03;8359583;23;20182;-77
2023/12/03 14:40:57;;;;;;;13.63;11.20;;;;;;;5.63;48.33;99332.84;8359940;23;20241;-78
2023/12/03 14:44:20;;;;;;;15.60;12.17;;;;;;;5.46;49.13;99352.50;8362363;23;20271;-77
2023/12/03 14:47:42;;;;;;;17.63;13.37;;;;;;;4.88;50.91;99340.78;8361736;23;20262;-77
2023/12/03 14:51:04;;;;;;;16.73;11.87;;;;;;;4.70;50.67;99357.81;8361230;23;20230;-77
2023/12/03 14:54:26;;;;;;;18.07;12.97;;;;;;;4.98;50.82;99348.69;8362106;23;20214;-77
2023/12/03 14:57:48;;;;;;;19.40;13.43;;;;;;;5.06;50.40;99330.03;8361709;23;20213;-77
2023/12/03 15:01:09;;;;;;;17.67;13.03;;;;;;;5.03;50.81;99344.56;8361677;23;20296;-76
2023/12/03 15:04:32;;;;;;;18.10;12.40;;;;;;;5.02;51.14;99358.91;8362678;23;20190;-76
2023/12/03 15:07:53;;;;;;;18.20;13.13;;;;;;;5.19;50.63;99352.66;8361855;23;20209;-76
2023/12/03 15:11:15;;;;;;;16.57;12.83;;;;;;;4.68;50.95;99371.34;8361298;23;20206;-77
2023/12/03 15:14:37;;;;;;;20.17;13.67;;;;;;;4.46;51.92;99374.47;8362116;23;20193;-76
2023/12/03 15:17:58;;;;;;;17.37;13.70;;;;;;;4.43;52.44;99376.63;8361346;23;20182;-76
2023/12/03 15:21:21;;;;;;;21.83;12.90;;;;;;;4.62;52.47;99377.31;8362173;23;20625;-75
2023/12/03 15:24:42;;;;;;;19.27;13.80;;;;;;;4.96;51.69;99361.38;8362568;23;20620;-76
2023/12/03 15:28:04;;;;;;;18.07;13.07;;;;;;;4.89;51.55;99361.16;8375373;23;20700;-76
2023/12/03 15:31:26;;;;;;;18.47;13.60;;;;;;;4.94;51.30;99356.19;8362583;23;20637;-76
2023/12/03 15:34:47;;;;;;;18.63;14.13;;;;;;;4.74;50.92;99357.38;8363632;23;20269;-76
2023/12/03 15:38:10;;;;;;;21.27;15.40;;;;;;;4.36;51.66;99364.88;8359418;23;20211;-76
2023/12/03 15:41:32;;;;;;;22.30;16.20;;;;;;;4.06;52.14;99358.06;8361219;23;20273;-76
2023/12/03 15:44:54;;;;;;;22.00;16.03;;;;;;;3.98;52.68;99349.13;8362284;23;20217;-76
2023/12/03 15:48:15;;;;;;;26.13;17.57;;;;;;;3.68;53.50;99357.47;8358758;23;20299;-76